Miami, Texas
Current Conditions -  °F | °C
As of 1:55 PM on Thursday 30 Oct 2014 (Local Time) from KHHF Reporting Station
Clear Clear  
Wind Chill: 72°   Ceiling: Unl
Heat Index: 72°   Visibility: 10mi
Dew Point: 32°   Wind: 12mph
Humidity: 23%   Direction: 50°NE
Pressure: 30.22"   Gusts: 20mph
Location:  35.69°N, 100.64°W
Report Text: KHHF 301855Z AUTO 05010G17KT 10SM CLR 22/00 A3022 RMK AO2 T02201001
Loading
Personal Weather Stations






























Interactive Weather Map
Tropical Storm Tracking
New forecast layout! Learn more

10-Day Weather Forecast

Advertisements
Track Severe Weather on mobile